createdAt,value
2023-01-10T00:00:25.194Z,5.13
2023-01-10T00:03:26.576Z,6.37
2023-01-10T00:06:29.144Z,5.95
2023-01-10T00:09:31.738Z,6.30
2023-01-10T00:12:51.145Z,5.05
2023-01-10T00:15:56.819Z,7.50
2023-01-10T00:18:58.159Z,6.47
2023-01-10T00:22:14.107Z,6.53
2023-01-10T00:25:15.627Z,5.95
2023-01-10T00:28:20.594Z,5.07
2023-01-10T00:31:22.697Z,6.70
2023-01-10T00:34:25.839Z,6.03
2023-01-10T00:37:28.456Z,6.75
2023-01-10T00:40:31.073Z,5.43
2023-01-10T00:43:50.818Z,5.35
2023-01-10T00:46:54.456Z,6.25
2023-01-10T00:49:55.813Z,5.80
2023-01-10T00:52:58.436Z,5.32
2023-01-10T00:56:01.056Z,5.28
2023-01-10T00:59:03.003Z,6.40
2023-01-10T01:02:06.333Z,6.85
2023-01-10T01:05:08.569Z,5.70
2023-01-10T01:08:12.659Z,6.13
2023-01-10T01:11:15.224Z,6.68
2023-01-10T01:14:16.532Z,5.95
2023-01-10T01:17:20.356Z,5.32
2023-01-10T01:20:21.861Z,7.30
2023-01-10T01:23:25.309Z,5.97
2023-01-10T01:26:26.714Z,6.18
2023-01-10T01:29:42.423Z,5.60
2023-01-10T01:32:44.851Z,5.32
2023-01-10T01:35:49.426Z,6.40
2023-01-10T01:38:52.159Z,6.30
2023-01-10T01:41:59.798Z,5.22
2023-01-10T01:45:33.304Z,6.13
2023-01-10T01:48:37.678Z,6.82
2023-01-10T01:51:40.550Z,5.27
2023-01-10T01:54:43.533Z,6.22
2023-01-10T01:57:47.794Z,6.35
2023-01-10T02:00:49.347Z,8.05
2023-01-10T02:03:57.874Z,6.00
2023-01-10T02:06:59.539Z,5.20
2023-01-10T02:13:27.977Z,7.07
2023-01-10T02:16:30.564Z,6.78
2023-01-10T02:19:47.809Z,6.53
2023-01-10T02:23:13.993Z,7.33
2023-01-10T02:26:42.472Z,6.28
2023-01-10T02:30:18.379Z,6.43
2023-01-10T02:33:25.707Z,5.72
2023-01-10T02:36:39.287Z,6.65
2023-01-10T02:39:53.793Z,5.57
2023-01-10T02:43:00.777Z,5.95
2023-01-10T02:46:07.374Z,6.10
2023-01-10T02:49:09.431Z,6.53
2023-01-10T02:52:14.183Z,6.28
2023-01-10T02:55:16.246Z,7.10
2023-01-10T02:58:33.100Z,6.28
2023-01-10T03:01:43.686Z,9.35
2023-01-10T03:04:55.479Z,7.53
2023-01-10T03:08:10.546Z,6.68
2023-01-10T03:11:13.203Z,7.97
2023-01-10T03:14:18.602Z,6.95
2023-01-10T03:17:23.765Z,6.93
2023-01-10T03:20:28.606Z,6.95
2023-01-10T03:23:34.350Z,8.13
2023-01-10T03:26:45.483Z,8.00
2023-01-10T03:29:54.233Z,7.82
2023-01-10T03:32:57.486Z,8.68
2023-01-10T03:36:14.322Z,8.25
2023-01-10T03:39:23.120Z,10.13
2023-01-10T03:42:53.255Z,7.40
2023-01-10T03:45:58.550Z,7.10
2023-01-10T03:49:03.677Z,6.43
2023-01-10T03:52:07.174Z,7.28
2023-01-10T03:55:12.611Z,7.03
2023-01-10T03:58:14.912Z,9.67
2023-01-10T04:01:16.506Z,7.20
2023-01-10T04:04:19.106Z,8.27
2023-01-10T04:07:21.263Z,7.22
2023-01-10T04:10:25.304Z,7.80
2023-01-10T04:13:26.965Z,7.20
2023-01-10T04:16:29.463Z,9.00
2023-01-10T04:22:52.011Z,8.48
2023-01-10T04:25:54.247Z,8.70
2023-01-10T04:28:55.866Z,7.33
2023-01-10T04:31:58.404Z,7.95
2023-01-10T04:35:00.626Z,7.68
2023-01-10T04:38:02.625Z,6.25
2023-01-10T04:41:05.146Z,11.07
2023-01-10T04:44:06.577Z,8.73
2023-01-10T04:47:08.326Z,9.35
2023-01-10T04:50:10.789Z,9.80
2023-01-10T04:53:13.398Z,8.00
2023-01-10T04:56:18.893Z,10.18
2023-01-10T04:59:20.390Z,8.87
2023-01-10T05:02:23.045Z,9.23
2023-01-10T05:05:24.961Z,9.20
2023-01-10T05:08:28.577Z,9.40
2023-01-10T05:11:29.871Z,13.38
2023-01-10T05:14:32.475Z,10.50
2023-01-10T05:17:33.932Z,12.77
2023-01-10T05:20:36.545Z,9.88
2023-01-10T05:23:39.294Z,12.25
2023-01-10T05:26:41.921Z,8.65
2023-01-10T05:29:43.739Z,8.70
2023-01-10T05:32:45.326Z,9.15
2023-01-10T05:35:46.663Z,7.80
2023-01-10T05:38:48.982Z,11.30
2023-01-10T05:41:51.537Z,13.82
2023-01-10T05:44:52.995Z,12.57
2023-01-10T05:47:55.522Z,12.48
2023-01-10T05:50:57.220Z,11.48
2023-01-10T05:53:59.168Z,10.65
2023-01-10T05:57:01.770Z,11.65
2023-01-10T06:00:05.207Z,12.00
2023-01-10T06:03:08.395Z,10.48
2023-01-10T06:06:11.647Z,11.68
2023-01-10T06:09:14.874Z,10.82
2023-01-10T06:12:17.868Z,9.68
2023-01-10T06:15:20.915Z,15.20
2023-01-10T06:18:22.229Z,12.18
2023-01-10T06:21:24.751Z,12.52
2023-01-10T06:24:26.732Z,9.95
2023-01-10T06:27:29.334Z,14.27
2023-01-10T06:30:32.052Z,9.43
2023-01-10T06:36:56.404Z,14.10
2023-01-10T06:39:58.675Z,9.05
2023-01-10T06:43:01.225Z,11.95
2023-01-10T06:46:02.583Z,12.73
2023-01-10T06:49:04.018Z,10.57
2023-01-10T06:52:06.742Z,11.93
2023-01-10T06:55:09.577Z,14.00
2023-01-10T06:58:12.465Z,12.02
2023-01-10T07:01:16.303Z,12.63
2023-01-10T07:04:19.215Z,10.88
2023-01-10T07:07:20.518Z,12.05
2023-01-10T07:10:24.056Z,13.40
2023-01-10T07:13:25.665Z,13.35
2023-01-10T07:16:28.507Z,10.63
2023-01-10T07:19:29.808Z,10.68
2023-01-10T07:22:32.322Z,10.75
2023-01-10T07:25:35.546Z,10.15
2023-01-10T07:28:38.511Z,14.50
2023-01-10T07:31:39.866Z,10.27
2023-01-10T07:34:41.321Z,11.88
2023-01-10T07:37:42.584Z,13.35
2023-01-10T07:40:45.839Z,11.57
2023-01-10T07:43:48.077Z,13.75
2023-01-10T07:46:49.911Z,9.97
2023-01-10T07:49:51.238Z,10.80
2023-01-10T07:52:52.806Z,11.70
2023-01-10T07:56:00.355Z,14.35
2023-01-10T07:59:01.680Z,14.98
2023-01-10T08:02:02.984Z,17.50
2023-01-10T08:05:06.436Z,15.05
2023-01-10T08:08:09.624Z,10.85
2023-01-10T08:11:11.639Z,12.73
2023-01-10T08:14:14.282Z,13.77
2023-01-10T08:17:15.705Z,15.03
2023-01-10T08:20:18.555Z,12.98
2023-01-10T08:23:21.217Z,12.02
2023-01-10T08:26:24.497Z,12.38
2023-01-10T08:29:27.103Z,12.68
2023-01-10T08:32:28.858Z,18.00
2023-01-10T08:35:31.464Z,11.80
2023-01-10T08:38:32.781Z,13.45
2023-01-10T08:41:34.790Z,15.40
2023-01-10T08:44:36.591Z,13.13
2023-01-10T08:47:38.100Z,12.43
2023-01-10T08:50:41.201Z,14.85
2023-01-10T08:53:42.476Z,14.55
2023-01-10T08:56:45.918Z,17.38
2023-01-10T08:59:47.239Z,12.75
2023-01-10T09:02:48.620Z,13.47
2023-01-10T09:05:51.241Z,12.13
2023-01-10T09:08:53.123Z,11.63
2023-01-10T09:11:58.010Z,12.57
2023-01-10T09:14:59.374Z,11.57
2023-01-10T09:18:03.238Z,17.27
2023-01-10T09:21:05.973Z,14.48
2023-01-10T09:24:07.685Z,11.95
2023-01-10T09:27:09.874Z,12.40
2023-01-10T09:30:12.714Z,14.23
2023-01-10T09:33:15.022Z,15.20
2023-01-10T09:36:16.342Z,18.80
2023-01-10T09:39:19.303Z,12.02
2023-01-10T09:42:35.271Z,12.82
2023-01-10T09:45:44.671Z,14.05
2023-01-10T09:48:51.991Z,11.30
2023-01-10T09:51:59.243Z,14.32
2023-01-10T09:55:14.310Z,11.68
2023-01-10T09:58:20.871Z,12.45
2023-01-10T10:01:27.353Z,10.95
2023-01-10T10:04:34.591Z,11.27
2023-01-10T10:07:36.180Z,11.27
2023-01-10T10:14:16.716Z,9.88
2023-01-10T10:17:33.362Z,9.73
2023-01-10T10:20:47.390Z,13.53
2023-01-10T10:24:16.470Z,14.40
2023-01-10T10:27:22.307Z,14.90
2023-01-10T10:30:36.751Z,11.52
2023-01-10T10:33:53.128Z,10.80
2023-01-10T10:36:58.960Z,10.53
2023-01-10T10:40:05.006Z,13.70
2023-01-10T10:43:15.652Z,9.43
2023-01-10T10:49:46.733Z,12.98
2023-01-10T10:52:49.370Z,9.80
2023-01-10T10:55:51.887Z,11.85
2023-01-10T10:58:57.989Z,14.20
2023-01-10T11:02:00.662Z,14.40
2023-01-10T11:08:30.386Z,15.33
2023-01-10T11:11:37.293Z,8.18
2023-01-10T11:14:45.176Z,9.90
2023-01-10T11:18:05.392Z,10.55
2023-01-10T11:21:13.479Z,11.25
2023-01-10T11:24:21.684Z,8.70
2023-01-10T11:27:27.897Z,12.98
2023-01-10T11:30:33.383Z,9.23
2023-01-10T11:33:36.843Z,8.75
2023-01-10T11:36:53.219Z,10.70
2023-01-10T11:40:18.394Z,11.73
2023-01-10T11:43:25.976Z,9.07
2023-01-10T11:46:28.179Z,11.55
2023-01-10T11:49:34.900Z,12.85
2023-01-10T11:52:44.368Z,9.48
2023-01-10T11:55:48.024Z,13.03
2023-01-10T11:58:50.750Z,9.88
2023-01-10T12:02:00.925Z,13.65
2023-01-10T12:05:07.505Z,11.73
2023-01-10T12:08:32.101Z,9.18
2023-01-10T12:11:35.112Z,10.07
2023-01-10T12:14:36.875Z,11.05
2023-01-10T12:21:00.043Z,7.32
2023-01-10T12:24:06.452Z,9.35
2023-01-10T12:27:12.338Z,13.47
2023-01-10T12:30:19.878Z,11.57
2023-01-10T12:33:25.456Z,10.80
2023-01-10T12:36:38.012Z,7.63
2023-01-10T12:39:45.808Z,16.90
2023-01-10T12:43:13.211Z,13.40
2023-01-10T12:46:41.035Z,10.63
2023-01-10T12:49:49.066Z,9.23
2023-01-10T12:52:58.796Z,9.10
2023-01-10T12:56:05.326Z,12.98
2023-01-10T12:59:16.202Z,9.60
2023-01-10T13:02:23.907Z,7.00
2023-01-10T13:05:27.339Z,10.43
2023-01-10T13:08:34.734Z,10.95
2023-01-10T13:11:44.293Z,8.65
2023-01-10T13:14:52.476Z,7.57
2023-01-10T13:17:59.241Z,7.77
2023-01-10T13:21:13.810Z,9.90
2023-01-10T13:24:28.297Z,10.60
2023-01-10T13:27:34.072Z,11.52
2023-01-10T13:30:42.682Z,9.68
2023-01-10T13:33:53.813Z,9.90
2023-01-10T13:36:58.009Z,7.57
2023-01-10T13:40:02.967Z,8.93
2023-01-10T13:43:34.946Z,9.77
2023-01-10T13:46:45.060Z,9.43
2023-01-10T13:49:47.967Z,9.03
2023-01-10T13:52:50.722Z,10.50
2023-01-10T13:55:56.193Z,9.43
2023-01-10T13:59:15.747Z,7.70
2023-01-10T14:05:52.120Z,9.23
2023-01-10T14:08:55.852Z,8.10
2023-01-10T14:11:59.628Z,6.97
2023-01-10T14:15:06.137Z,7.38
2023-01-10T14:18:18.898Z,7.97
2023-01-10T14:21:25.403Z,9.23
2023-01-10T14:24:30.295Z,9.02
2023-01-10T14:27:42.714Z,11.93
2023-01-10T14:30:45.460Z,11.27
2023-01-10T14:33:47.839Z,15.38
2023-01-10T14:36:57.101Z,8.60
2023-01-10T14:39:59.702Z,10.00
2023-01-10T14:43:08.406Z,7.14
2023-01-10T14:46:15.428Z,9.90
2023-01-10T14:49:24.535Z,9.40
2023-01-10T14:52:26.253Z,10.60
2023-01-10T14:55:28.937Z,7.30
2023-01-10T14:58:30.928Z,9.43
2023-01-10T15:04:55.669Z,9.77
2023-01-10T15:08:17.276Z,8.63
2023-01-10T15:11:19.575Z,11.10
2023-01-10T15:14:25.596Z,12.33
2023-01-10T15:17:27.675Z,8.40
2023-01-10T15:20:30.898Z,10.45
2023-01-10T15:23:36.236Z,11.52
2023-01-10T15:26:39.078Z,7.77
2023-01-10T15:29:43.977Z,8.33
2023-01-10T15:36:15.629Z,10.90
2023-01-10T15:39:22.983Z,9.95
2023-01-10T15:42:25.651Z,7.50
2023-01-10T15:45:36.773Z,9.37
2023-01-10T15:48:41.592Z,10.50
2023-01-10T15:51:47.583Z,9.05
2023-01-10T15:54:50.302Z,10.63
2023-01-10T15:57:51.783Z,11.47
2023-01-10T16:00:56.539Z,10.93
2023-01-10T16:04:01.132Z,9.82
2023-01-10T16:07:13.134Z,14.85
2023-01-10T16:13:40.858Z,14.60
2023-01-10T16:16:44.069Z,10.87
2023-01-10T16:19:46.640Z,12.68
2023-01-10T16:22:49.131Z,16.40
2023-01-10T16:25:52.764Z,11.30
2023-01-10T16:28:54.180Z,12.20
2023-01-10T16:31:56.370Z,11.23
2023-01-10T16:35:01.990Z,14.48
2023-01-10T16:38:03.594Z,14.65
2023-01-10T16:41:26.800Z,19.50
2023-01-10T16:44:28.500Z,44.40
2023-01-10T16:47:31.761Z,19.37
2023-01-10T16:50:34.404Z,20.23
2023-01-10T16:53:36.952Z,13.20
2023-01-10T16:56:38.282Z,9.73
2023-01-10T16:59:39.794Z,11.10
2023-01-10T17:02:43.262Z,8.17
2023-01-10T17:05:44.671Z,9.70
2023-01-10T17:08:47.378Z,11.23
2023-01-10T17:11:54.887Z,10.57
2023-01-10T17:14:56.363Z,9.50
2023-01-10T17:17:59.612Z,10.30
2023-01-10T17:21:01.072Z,11.53
2023-01-10T17:24:02.457Z,11.95
2023-01-10T17:27:04.075Z,10.30
2023-01-10T17:30:06.246Z,9.80
2023-01-10T17:33:11.284Z,10.73
2023-01-10T17:36:12.644Z,12.60
2023-01-10T17:39:14.435Z,11.85
2023-01-10T17:42:18.812Z,13.80
2023-01-10T17:45:20.312Z,13.13
2023-01-10T17:48:22.358Z,11.90
2023-01-10T17:51:24.310Z,14.35
2023-01-10T17:54:27.311Z,10.65
2023-01-10T17:57:29.097Z,11.00
2023-01-10T18:00:31.339Z,11.10
2023-01-10T18:03:33.392Z,13.87
2023-01-10T18:06:34.741Z,12.38
2023-01-10T18:09:37.369Z,10.77
2023-01-10T18:12:39.039Z,11.45
2023-01-10T18:15:43.365Z,11.93
2023-01-10T18:18:45.371Z,12.83
2023-01-10T18:21:48.578Z,12.10
2023-01-10T18:24:51.042Z,11.45
2023-01-10T18:27:52.650Z,10.75
2023-01-10T18:30:54.734Z,11.30
2023-01-10T18:33:57.677Z,10.43
2023-01-10T18:36:59.035Z,11.23
2023-01-10T18:40:00.392Z,12.38
2023-01-10T18:43:03.001Z,11.02
2023-01-10T18:46:07.947Z,11.47
2023-01-10T18:49:10.824Z,15.23
2023-01-10T18:52:13.474Z,15.50
2023-01-10T18:55:15.297Z,15.73
2023-01-10T18:58:17.852Z,14.60
2023-01-10T19:01:21.303Z,13.03
2023-01-10T19:04:23.629Z,9.80
2023-01-10T19:07:25.659Z,10.25
2023-01-10T19:10:26.989Z,10.80
2023-01-10T19:16:48.066Z,9.48
2023-01-10T19:19:50.099Z,10.67
2023-01-10T19:22:51.466Z,10.32
2023-01-10T19:25:56.013Z,8.65
2023-01-10T19:28:57.432Z,10.70
2023-01-10T19:32:01.036Z,8.80
2023-01-10T19:35:03.162Z,8.47
2023-01-10T19:38:05.730Z,9.82
2023-01-10T19:41:07.067Z,12.60
2023-01-10T19:44:13.544Z,10.15
2023-01-10T19:47:16.472Z,14.13
2023-01-10T19:50:18.835Z,9.63
2023-01-10T19:53:25.402Z,10.32
2023-01-10T19:56:26.853Z,8.45
2023-01-10T19:59:31.781Z,12.27
2023-01-10T20:02:33.938Z,12.17
2023-01-10T20:05:37.469Z,9.20
2023-01-10T20:08:38.809Z,10.20
2023-01-10T20:11:42.220Z,10.88
2023-01-10T20:14:43.527Z,8.40
2023-01-10T20:17:46.171Z,9.25
2023-01-10T20:20:48.610Z,7.80
2023-01-10T20:23:51.405Z,8.13
2023-01-10T20:26:52.805Z,7.78
2023-01-10T20:29:54.272Z,9.93
2023-01-10T20:32:55.589Z,7.53
2023-01-10T20:36:00.117Z,10.13
2023-01-10T20:39:02.995Z,8.70
2023-01-10T20:42:04.406Z,10.60
2023-01-10T20:45:08.797Z,7.38
2023-01-10T20:48:11.625Z,8.38
2023-01-10T20:51:15.548Z,10.83
2023-01-10T20:54:18.110Z,8.03
2023-01-10T20:57:20.280Z,7.65
2023-01-10T21:00:23.206Z,9.43
2023-01-10T21:03:24.980Z,10.45
2023-01-10T21:06:28.531Z,9.03
2023-01-10T21:09:31.143Z,7.90
2023-01-10T21:12:34.893Z,10.23
2023-01-10T21:15:38.595Z,8.63
2023-01-10T21:18:44.763Z,7.88
2023-01-10T21:21:46.735Z,13.90
2023-01-10T21:24:50.358Z,13.03
2023-01-10T21:27:51.749Z,11.13
2023-01-10T21:30:54.378Z,10.48
2023-01-10T21:33:55.686Z,9.32
2023-01-10T21:36:58.936Z,9.33
2023-01-10T21:40:00.304Z,9.10
2023-01-10T21:43:03.161Z,10.68
2023-01-10T21:46:23.955Z,7.55
2023-01-10T21:49:26.579Z,9.18
2023-01-10T21:52:28.521Z,7.83
2023-01-10T21:55:31.234Z,9.20
2023-01-10T21:58:32.781Z,9.07
2023-01-10T22:04:55.949Z,8.60
2023-01-10T22:07:59.394Z,8.70
2023-01-10T22:11:00.718Z,8.77
2023-01-10T22:14:03.324Z,7.80
2023-01-10T22:17:05.965Z,12.65
2023-01-10T22:20:08.937Z,6.97
2023-01-10T22:23:12.318Z,8.23
2023-01-10T22:26:15.572Z,9.20
2023-01-10T22:29:20.229Z,8.15
2023-01-10T22:32:21.563Z,8.35
2023-01-10T22:35:26.604Z,9.25
2023-01-10T22:38:30.334Z,7.53
2023-01-10T22:41:33.074Z,7.83
2023-01-10T22:44:34.350Z,6.95
2023-01-10T22:47:36.929Z,9.65
2023-01-10T22:50:38.825Z,9.82
2023-01-10T22:53:42.504Z,7.87
2023-01-10T22:56:46.541Z,6.23
2023-01-10T22:59:49.063Z,8.73
2023-01-10T23:02:51.690Z,6.85
2023-01-10T23:05:54.008Z,9.82
2023-01-10T23:08:57.613Z,9.13
2023-01-10T23:11:58.915Z,8.67
2023-01-10T23:15:01.472Z,8.52
2023-01-10T23:21:24.404Z,9.32
2023-01-10T23:24:27.741Z,8.67
2023-01-10T23:27:30.287Z,11.07
2023-01-10T23:30:31.649Z,7.20
2023-01-10T23:33:34.779Z,10.23
2023-01-10T23:36:36.090Z,11.23
2023-01-10T23:39:39.466Z,9.00
2023-01-10T23:42:42.025Z,9.40
2023-01-10T23:45:43.879Z,10.40
2023-01-10T23:48:48.802Z,8.35
2023-01-10T23:51:50.161Z,7.80
2023-01-10T23:54:53.933Z,7.47
2023-01-10T23:57:57.212Z,8.27
